createdAt,value
2018-05-29T00:01:10.014Z,84.30
2018-05-29T00:03:36.290Z,84.60
2018-05-29T00:06:02.547Z,84.40
2018-05-29T00:08:28.888Z,84.40
2018-05-29T00:10:55.121Z,84.30
2018-05-29T00:13:21.609Z,85.40
2018-05-29T00:15:48.581Z,85.80
2018-05-29T00:18:14.849Z,85.80
2018-05-29T00:20:41.068Z,85.80
2018-05-29T00:23:07.326Z,86.30
2018-05-29T00:25:33.577Z,86.60
2018-05-29T00:28:00.566Z,86.50
2018-05-29T00:30:26.873Z,86.50
2018-05-29T00:32:53.851Z,86.70
2018-05-29T00:35:20.094Z,86.70
2018-05-29T00:37:46.307Z,87.30
2018-05-29T00:40:12.561Z,87.70
2018-05-29T00:42:38.792Z,87.30
2018-05-29T00:45:05.050Z,87.10
2018-05-29T00:47:31.295Z,87.00
2018-05-29T00:49:58.301Z,87.60
2018-05-29T00:52:24.550Z,87.60
2018-05-29T00:55:03.740Z,88.40
2018-05-29T00:57:30.017Z,88.40
2018-05-29T00:59:56.370Z,88.90
2018-05-29T01:02:22.610Z,89.40
2018-05-29T01:04:49.606Z,89.80
2018-05-29T01:07:15.852Z,89.80
2018-05-29T01:09:44.970Z,89.80
2018-05-29T01:12:11.970Z,90.00
2018-05-29T01:14:38.222Z,90.00
2018-05-29T01:17:05.481Z,90.10
2018-05-29T01:19:31.772Z,90.00
2018-05-29T01:21:58.011Z,90.20
2018-05-29T01:24:24.232Z,90.10
2018-05-29T01:26:50.622Z,90.10
2018-05-29T01:29:17.266Z,90.30
2018-05-29T01:31:43.509Z,90.40
2018-05-29T01:34:09.790Z,90.40
2018-05-29T01:36:36.038Z,90.50
2018-05-29T01:39:02.322Z,90.40
2018-05-29T01:41:28.617Z,90.50
2018-05-29T01:43:54.850Z,90.60
2018-05-29T01:46:21.873Z,90.60
2018-05-29T01:48:48.132Z,90.60
2018-05-29T01:51:15.136Z,90.80
2018-05-29T01:53:41.442Z,90.70
2018-05-29T01:56:07.769Z,90.80
2018-05-29T01:58:34.730Z,90.90
2018-05-29T02:01:00.974Z,90.90
2018-05-29T02:03:27.219Z,90.90
2018-05-29T02:05:53.479Z,91.10
2018-05-29T02:08:19.741Z,91.10
2018-05-29T02:10:46.014Z,91.30
2018-05-29T02:13:12.277Z,91.30
2018-05-29T02:15:38.562Z,91.40
2018-05-29T02:18:04.805Z,91.40
2018-05-29T02:20:31.050Z,91.30
2018-05-29T02:22:57.322Z,91.10
2018-05-29T02:25:48.011Z,91.20
2018-05-29T02:28:14.343Z,91.10
2018-05-29T02:30:40.687Z,91.20
2018-05-29T02:33:07.796Z,91.40
2018-05-29T02:35:34.182Z,91.40
2018-05-29T02:38:00.492Z,91.40
2018-05-29T02:40:26.772Z,91.50
2018-05-29T02:42:53.051Z,91.30
2018-05-29T02:45:19.318Z,91.10
2018-05-29T02:47:45.611Z,91.30
2018-05-29T02:50:11.870Z,91.40
2018-05-29T02:52:38.904Z,91.50
2018-05-29T02:55:05.920Z,91.40
2018-05-29T02:57:32.250Z,91.50
2018-05-29T02:59:58.495Z,91.60
2018-05-29T03:02:25.561Z,91.70
2018-05-29T03:04:52.623Z,91.70
2018-05-29T03:07:18.940Z,91.60
2018-05-29T03:09:45.211Z,91.60
2018-05-29T03:12:11.488Z,91.60
2018-05-29T03:14:37.778Z,91.50
2018-05-29T03:17:04.131Z,91.60
2018-05-29T03:19:30.424Z,91.60
2018-05-29T03:21:57.523Z,91.50
2018-05-29T03:24:23.911Z,91.50
2018-05-29T03:26:50.943Z,91.20
2018-05-29T03:29:17.266Z,91.20
2018-05-29T03:31:43.522Z,91.40
2018-05-29T03:34:09.944Z,91.50
2018-05-29T03:36:36.247Z,91.60
2018-05-29T03:39:02.608Z,91.50
2018-05-29T03:41:29.615Z,91.40
2018-05-29T03:43:55.899Z,91.40
2018-05-29T03:46:22.192Z,91.30
2018-05-29T03:48:48.484Z,91.40
2018-05-29T03:51:14.810Z,91.40
2018-05-29T03:53:41.124Z,91.30
2018-05-29T03:56:07.484Z,91.20
2018-05-29T03:58:33.808Z,91.10
2018-05-29T04:01:00.805Z,91.10
2018-05-29T04:03:27.070Z,91.10
2018-05-29T04:05:54.082Z,91.20
2018-05-29T04:08:20.391Z,91.20
2018-05-29T04:10:46.699Z,91.40
2018-05-29T04:13:14.748Z,91.40
2018-05-29T04:15:40.995Z,91.40
2018-05-29T04:18:08.016Z,91.30
2018-05-29T04:20:34.299Z,91.30
2018-05-29T04:23:00.572Z,91.50
2018-05-29T04:25:27.644Z,91.10
2018-05-29T04:27:53.914Z,91.10
2018-05-29T04:30:20.387Z,91.00
2018-05-29T04:32:46.650Z,90.80
2018-05-29T04:35:13.809Z,90.50
2018-05-29T04:37:40.136Z,90.50
2018-05-29T04:40:07.183Z,90.60
2018-05-29T04:42:34.190Z,90.70
2018-05-29T04:45:00.462Z,90.70
2018-05-29T04:47:27.455Z,90.40
2018-05-29T04:49:54.012Z,90.30
2018-05-29T04:52:20.272Z,90.10
2018-05-29T04:54:47.356Z,90.10
2018-05-29T04:57:13.652Z,90.10
2018-05-29T04:59:39.956Z,90.00
2018-05-29T05:02:06.236Z,90.00
2018-05-29T05:04:32.521Z,89.50
2018-05-29T05:06:58.781Z,89.30
2018-05-29T05:09:25.140Z,89.10
2018-05-29T05:11:51.399Z,89.30
2018-05-29T05:14:17.723Z,89.50
2018-05-29T05:16:43.989Z,89.50
2018-05-29T05:19:10.320Z,89.60
2018-05-29T05:21:36.579Z,89.30
2018-05-29T05:24:03.058Z,88.90
2018-05-29T05:26:29.331Z,88.30
2018-05-29T05:28:55.681Z,87.60
2018-05-29T05:31:22.694Z,86.20
2018-05-29T05:33:48.986Z,86.10
2018-05-29T05:36:15.281Z,85.30
2018-05-29T05:38:41.557Z,85.50
2018-05-29T05:41:07.859Z,85.00
2018-05-29T05:43:34.593Z,84.00
2018-05-29T05:46:00.924Z,84.10
2018-05-29T05:48:27.199Z,83.20
2018-05-29T05:50:53.516Z,83.20
2018-05-29T05:53:19.775Z,83.80
2018-05-29T05:55:46.107Z,83.50
2018-05-29T05:58:12.431Z,83.40
2018-05-29T06:00:39.171Z,83.30
2018-05-29T06:03:05.464Z,83.50
2018-05-29T06:05:31.743Z,83.10
2018-05-29T06:07:58.028Z,83.10
2018-05-29T06:10:24.314Z,83.00
2018-05-29T06:12:50.614Z,82.60
2018-05-29T06:15:16.899Z,83.00
2018-05-29T06:17:43.170Z,82.40
2018-05-29T06:20:09.511Z,81.70
2018-05-29T06:22:35.799Z,82.10
2018-05-29T06:25:02.135Z,81.90
2018-05-29T06:27:28.431Z,81.00
2018-05-29T06:29:54.722Z,79.90
2018-05-29T06:32:21.066Z,78.40
2018-05-29T06:34:47.439Z,79.00
2018-05-29T06:37:14.170Z,79.80
2018-05-29T06:39:41.012Z,80.30
2018-05-29T06:42:08.001Z,81.00
2018-05-29T06:44:34.611Z,81.80
2018-05-29T06:47:00.980Z,82.20
2018-05-29T06:49:28.022Z,82.10
2018-05-29T06:51:55.099Z,81.40
2018-05-29T06:54:21.708Z,80.40
2018-05-29T06:56:48.327Z,81.10
2018-05-29T06:59:14.601Z,80.90
2018-05-29T07:01:41.044Z,80.80
2018-05-29T07:04:08.145Z,80.60
2018-05-29T07:06:34.427Z,80.70
2018-05-29T07:09:00.694Z,80.50
2018-05-29T07:11:26.982Z,81.10
2018-05-29T07:13:53.247Z,80.60
2018-05-29T07:16:19.638Z,80.10
2018-05-29T07:18:45.899Z,80.40
2018-05-29T07:21:13.355Z,79.50
2018-05-29T07:23:39.614Z,79.00
2018-05-29T07:26:05.908Z,78.90
2018-05-29T07:28:32.178Z,79.10
2018-05-29T07:30:58.446Z,79.00
2018-05-29T07:33:24.710Z,79.20
2018-05-29T07:35:51.027Z,78.10
2018-05-29T07:38:17.289Z,77.70
2018-05-29T07:40:44.027Z,77.40
2018-05-29T07:43:10.290Z,77.80
2018-05-29T07:45:36.562Z,77.70
2018-05-29T07:48:02.904Z,77.50
2018-05-29T07:50:29.187Z,76.90
2018-05-29T07:52:55.618Z,76.30
2018-05-29T07:55:22.115Z,76.10
2018-05-29T07:57:48.489Z,76.40
2018-05-29T08:00:14.784Z,76.40
2018-05-29T08:02:41.077Z,76.30
2018-05-29T08:05:07.579Z,75.00
2018-05-29T08:07:33.863Z,74.30
2018-05-29T08:10:00.128Z,73.40
2018-05-29T08:12:26.496Z,71.80
2018-05-29T08:14:53.091Z,70.90
2018-05-29T08:17:19.376Z,71.20
2018-05-29T08:19:45.649Z,71.70
2018-05-29T08:22:11.935Z,71.80
2018-05-29T08:24:38.211Z,70.10
2018-05-29T08:27:04.539Z,68.30
2018-05-29T08:29:31.543Z,69.70
2018-05-29T08:31:58.183Z,69.70
2018-05-29T08:34:25.216Z,70.50
2018-05-29T08:36:51.485Z,70.50
2018-05-29T08:39:17.808Z,69.60
2018-05-29T08:41:44.095Z,68.80
2018-05-29T08:44:11.090Z,67.90
2018-05-29T08:46:37.367Z,67.90
2018-05-29T08:49:03.647Z,68.30
2018-05-29T08:51:29.931Z,67.00
2018-05-29T08:53:56.196Z,66.90
2018-05-29T08:56:22.470Z,66.70
2018-05-29T08:58:48.750Z,65.40
2018-05-29T09:01:15.095Z,66.40
2018-05-29T09:03:41.528Z,66.60
2018-05-29T09:06:10.071Z,66.50
2018-05-29T09:08:37.994Z,66.90
2018-05-29T09:11:04.428Z,66.80
2018-05-29T09:13:30.819Z,66.90
2018-05-29T09:15:57.854Z,65.10
2018-05-29T09:18:24.171Z,64.40
2018-05-29T09:20:51.829Z,65.10
2018-05-29T09:23:18.196Z,65.50
2018-05-29T09:25:44.472Z,64.80
2018-05-29T09:28:10.767Z,64.60
2018-05-29T09:30:37.027Z,64.20
2018-05-29T09:33:04.295Z,62.70
2018-05-29T09:35:30.969Z,62.60
2018-05-29T09:37:57.535Z,62.20
2018-05-29T09:40:23.914Z,59.90
2018-05-29T09:42:50.163Z,58.90
2018-05-29T09:45:16.410Z,59.00
2018-05-29T09:47:43.079Z,60.20
2018-05-29T09:50:09.803Z,59.80
2018-05-29T09:52:36.096Z,58.90
2018-05-29T09:55:02.518Z,58.10
2018-05-29T09:57:30.114Z,58.10
2018-05-29T09:59:56.374Z,57.00
2018-05-29T10:02:22.685Z,55.70
2018-05-29T10:04:48.927Z,56.70
2018-05-29T10:07:15.226Z,56.30
2018-05-29T10:09:41.482Z,57.90
2018-05-29T10:12:08.507Z,56.40
2018-05-29T10:14:35.275Z,56.30
2018-05-29T10:17:01.539Z,56.30
2018-05-29T10:19:27.899Z,56.00
2018-05-29T10:21:55.093Z,58.00
2018-05-29T10:24:21.371Z,58.50
2018-05-29T10:26:47.742Z,59.80
2018-05-29T10:29:14.027Z,60.60
2018-05-29T10:31:41.665Z,61.20
2018-05-29T10:34:08.015Z,60.30
2018-05-29T10:36:34.440Z,58.50
2018-05-29T10:39:00.767Z,58.90
2018-05-29T10:41:27.023Z,58.40
2018-05-29T10:43:53.313Z,58.40
2018-05-29T10:46:19.605Z,56.50
2018-05-29T10:48:45.893Z,57.00
2018-05-29T10:51:13.155Z,55.00
2018-05-29T10:53:39.432Z,54.50
2018-05-29T10:56:05.754Z,55.20
2018-05-29T10:58:32.010Z,56.70
2018-05-29T11:00:58.523Z,56.30
2018-05-29T11:03:25.300Z,57.20
2018-05-29T11:05:51.583Z,58.10
2018-05-29T11:08:17.830Z,55.80
2018-05-29T11:10:44.827Z,56.40
2018-05-29T11:13:11.107Z,55.20
2018-05-29T11:15:37.383Z,53.80
2018-05-29T11:18:03.662Z,52.90
2018-05-29T11:20:30.399Z,52.30
2018-05-29T11:22:56.663Z,51.90
2018-05-29T11:25:22.926Z,51.40
2018-05-29T11:27:49.944Z,52.70
2018-05-29T11:30:16.281Z,52.70
2018-05-29T11:32:42.556Z,51.10
2018-05-29T11:35:08.864Z,51.80
2018-05-29T11:37:35.408Z,52.50
2018-05-29T11:40:01.719Z,52.10
2018-05-29T11:42:28.060Z,52.90
2018-05-29T11:44:54.290Z,52.10
2018-05-29T11:47:20.687Z,53.20
2018-05-29T11:49:47.039Z,53.90
2018-05-29T11:52:13.387Z,53.50
2018-05-29T11:54:39.633Z,53.40
2018-05-29T11:57:06.897Z,53.90
2018-05-29T11:59:33.170Z,54.00
2018-05-29T12:01:59.460Z,54.60
2018-05-29T12:04:25.723Z,53.20
2018-05-29T12:06:52.007Z,54.30
2018-05-29T12:09:18.249Z,53.20
2018-05-29T12:11:44.999Z,49.20
2018-05-29T12:14:11.244Z,50.90
2018-05-29T12:16:38.362Z,46.80
2018-05-29T12:19:04.610Z,46.80
2018-05-29T12:21:30.910Z,44.60
2018-05-29T12:23:57.152Z,45.80
2018-05-29T12:26:23.419Z,44.60
2018-05-29T12:28:50.419Z,46.20
2018-05-29T12:31:16.686Z,46.20
2018-05-29T12:33:42.930Z,46.50
2018-05-29T12:36:09.961Z,48.70
2018-05-29T12:38:36.207Z,48.70
2018-05-29T12:41:02.501Z,48.90
2018-05-29T12:43:28.754Z,47.80
2018-05-29T12:45:55.008Z,49.20
2018-05-29T12:48:21.524Z,49.80
2018-05-29T12:50:47.794Z,50.10
2018-05-29T12:53:14.091Z,51.30
2018-05-29T12:55:40.327Z,50.20
2018-05-29T12:58:06.743Z,50.80
2018-05-29T13:00:32.996Z,53.10
2018-05-29T13:02:59.274Z,51.70
2018-05-29T13:05:25.571Z,53.10
2018-05-29T13:07:52.067Z,53.90
2018-05-29T13:10:18.306Z,55.00
2018-05-29T13:12:44.647Z,56.50
2018-05-29T13:15:10.982Z,58.10
2018-05-29T13:17:37.371Z,60.40
2018-05-29T13:20:03.640Z,60.90
2018-05-29T13:22:30.729Z,62.90
2018-05-29T13:24:56.955Z,62.90
2018-05-29T13:27:23.223Z,60.60
2018-05-29T13:29:49.484Z,60.30
2018-05-29T13:32:15.755Z,60.60
2018-05-29T13:34:42.053Z,61.50
2018-05-29T13:37:09.050Z,61.60
2018-05-29T13:39:35.356Z,61.50
2018-05-29T13:42:02.361Z,60.20
2018-05-29T13:44:28.728Z,60.00
2018-05-29T13:46:55.035Z,60.70
2018-05-29T13:49:21.359Z,63.40
2018-05-29T13:51:47.794Z,64.90
2018-05-29T13:54:14.103Z,67.60
2018-05-29T13:56:40.360Z,74.30
2018-05-29T13:59:06.706Z,81.60
2018-05-29T14:01:32.954Z,87.80
2018-05-29T14:03:59.646Z,90.30
2018-05-29T14:06:26.167Z,91.30
2018-05-29T14:08:52.504Z,92.30
2018-05-29T14:11:19.148Z,93.00
2018-05-29T14:13:45.471Z,92.70
2018-05-29T14:16:12.256Z,91.70
2018-05-29T14:18:39.105Z,90.00
2018-05-29T14:21:07.000Z,90.80
2018-05-29T14:23:33.363Z,90.80
2018-05-29T14:26:01.271Z,91.90
2018-05-29T14:28:27.538Z,91.90
2018-05-29T14:30:53.799Z,93.00
2018-05-29T14:33:20.045Z,92.60
2018-05-29T14:35:47.009Z,94.00
2018-05-29T14:38:13.267Z,94.40
2018-05-29T14:40:39.686Z,94.40
2018-05-29T14:43:05.924Z,94.00
2018-05-29T14:45:32.257Z,93.90
2018-05-29T14:47:58.502Z,95.00
2018-05-29T14:50:24.804Z,93.30
2018-05-29T14:52:51.048Z,92.30
2018-05-29T14:55:17.399Z,90.90
2018-05-29T14:57:44.423Z,92.50
2018-05-29T15:00:10.828Z,92.50
2018-05-29T15:02:37.134Z,91.40
2018-05-29T15:05:03.485Z,91.00
2018-05-29T15:07:30.827Z,91.30
2018-05-29T15:09:57.113Z,91.30
2018-05-29T15:12:23.510Z,91.80
2018-05-29T15:14:49.807Z,91.30
2018-05-29T15:17:16.058Z,90.80
2018-05-29T15:19:43.087Z,88.50
2018-05-29T15:22:09.343Z,88.40
2018-05-29T15:24:35.603Z,90.80
2018-05-29T15:27:02.070Z,87.50
2018-05-29T15:29:34.982Z,85.00
2018-05-29T15:32:01.984Z,84.90
2018-05-29T15:34:29.035Z,85.00
2018-05-29T15:36:55.296Z,84.30
2018-05-29T15:39:21.538Z,82.20
2018-05-29T15:41:47.826Z,80.50
2018-05-29T15:44:14.084Z,81.40
2018-05-29T15:46:40.528Z,83.60
2018-05-29T15:49:06.786Z,81.00
2018-05-29T15:51:33.092Z,82.40
2018-05-29T15:53:59.853Z,83.10
2018-05-29T15:56:26.156Z,84.80
2018-05-29T15:58:52.415Z,90.10
2018-05-29T16:01:18.731Z,87.20
2018-05-29T16:03:45.003Z,91.20
2018-05-29T16:06:11.335Z,91.10
2018-05-29T16:08:37.632Z,91.60
2018-05-29T16:11:04.664Z,92.60
2018-05-29T16:13:31.667Z,93.30
2018-05-29T16:15:58.056Z,93.20
2018-05-29T16:18:24.398Z,93.00
2018-05-29T16:20:51.392Z,93.10
2018-05-29T16:23:17.691Z,92.90
2018-05-29T16:25:43.950Z,93.00
2018-05-29T16:28:10.267Z,93.60
2018-05-29T16:30:36.559Z,93.20
2018-05-29T16:33:02.863Z,93.10
2018-05-29T16:35:29.761Z,93.30
2018-05-29T16:37:57.091Z,93.40
2018-05-29T16:40:24.140Z,94.00
2018-05-29T16:42:50.458Z,94.00
2018-05-29T16:45:16.723Z,94.20
2018-05-29T16:47:43.987Z,94.00
2018-05-29T16:50:10.250Z,93.90
2018-05-29T16:52:36.830Z,94.10
2018-05-29T16:55:03.791Z,94.30
2018-05-29T16:57:30.071Z,94.10
2018-05-29T16:59:58.406Z,94.30
2018-05-29T17:02:25.236Z,94.20
2018-05-29T17:04:51.599Z,94.10
2018-05-29T17:07:17.848Z,94.10
2018-05-29T17:09:44.130Z,93.90
2018-05-29T17:12:10.399Z,93.40
2018-05-29T17:14:36.687Z,93.00
2018-05-29T17:17:02.986Z,92.80
2018-05-29T17:19:29.251Z,92.50
2018-05-29T17:21:55.604Z,91.80
2018-05-29T17:24:21.817Z,91.00
2018-05-29T17:26:48.092Z,90.40
2018-05-29T17:29:14.345Z,90.40
2018-05-29T17:31:41.225Z,89.70
2018-05-29T17:34:08.494Z,87.90
2018-05-29T17:36:34.812Z,88.10
2018-05-29T17:39:01.117Z,88.10
2018-05-29T17:41:27.391Z,89.00
2018-05-29T17:43:54.051Z,90.00
2018-05-29T17:46:20.327Z,90.30
2018-05-29T17:48:47.352Z,90.80
2018-05-29T17:51:13.624Z,90.80
2018-05-29T17:53:40.707Z,90.70
2018-05-29T17:56:06.961Z,90.60
2018-05-29T17:58:33.234Z,90.90
2018-05-29T18:00:59.507Z,90.80
2018-05-29T18:03:25.798Z,90.40
2018-05-29T18:05:52.052Z,90.90
2018-05-29T18:08:18.380Z,91.50
2018-05-29T18:10:44.639Z,91.70
2018-05-29T18:13:10.967Z,90.60
2018-05-29T18:15:37.947Z,92.10
2018-05-29T18:18:04.230Z,92.10
2018-05-29T18:20:31.084Z,92.20
2018-05-29T18:22:57.355Z,91.60
2018-05-29T18:25:23.903Z,91.70
2018-05-29T18:27:50.194Z,91.70
2018-05-29T18:30:16.456Z,92.00
2018-05-29T18:32:42.744Z,91.70
2018-05-29T18:35:08.996Z,92.40
2018-05-29T18:37:36.266Z,93.20
2018-05-29T18:40:02.750Z,93.20
2018-05-29T18:42:29.017Z,93.60
2018-05-29T18:44:55.294Z,94.00
2018-05-29T18:47:22.530Z,94.50
2018-05-29T18:49:49.252Z,94.70
2018-05-29T18:52:15.635Z,95.10
2018-05-29T18:54:41.983Z,95.40
2018-05-29T18:57:08.243Z,95.30
2018-05-29T18:59:34.974Z,95.70
2018-05-29T19:02:01.244Z,95.80
2018-05-29T19:04:28.096Z,95.90
2018-05-29T19:06:54.395Z,96.30
2018-05-29T19:09:20.740Z,96.30
2018-05-29T19:11:47.003Z,96.60
2018-05-29T19:14:13.279Z,96.50
2018-05-29T19:16:39.767Z,96.00
2018-05-29T19:19:06.064Z,96.00
2018-05-29T19:21:32.423Z,95.90
2018-05-29T19:23:58.713Z,95.50
2018-05-29T19:26:24.996Z,95.90
2018-05-29T19:28:51.458Z,96.20
2018-05-29T19:31:18.543Z,94.80
2018-05-29T19:33:46.901Z,94.80
2018-05-29T19:36:13.738Z,93.40
2018-05-29T19:38:40.043Z,93.40
2018-05-29T19:41:06.435Z,94.10
2018-05-29T19:43:32.745Z,94.30
2018-05-29T19:45:59.078Z,94.70
2018-05-29T19:48:26.108Z,94.70
2018-05-29T19:50:53.143Z,94.90
2018-05-29T19:53:20.343Z,94.90
2018-05-29T19:55:46.815Z,95.60
2018-05-29T19:58:13.079Z,95.20
2018-05-29T20:00:40.363Z,95.20
2018-05-29T20:03:06.634Z,95.10
2018-05-29T20:05:32.955Z,95.40
2018-05-29T20:07:59.212Z,95.50
2018-05-29T20:10:25.508Z,95.90
2018-05-29T20:12:52.152Z,95.60
2018-05-29T20:15:18.425Z,95.90
2018-05-29T20:17:45.507Z,96.40
2018-05-29T20:20:12.765Z,96.60
2018-05-29T20:22:39.072Z,96.00
2018-05-29T20:25:06.286Z,96.10
2018-05-29T20:27:33.599Z,96.60
2018-05-29T20:30:01.069Z,96.50
2018-05-29T20:32:28.004Z,95.90
2018-05-29T20:34:55.974Z,96.20
2018-05-29T20:37:23.946Z,96.00
2018-05-29T20:39:51.925Z,95.90
2018-05-29T20:42:18.627Z,96.30
2018-05-29T20:44:45.696Z,95.90
2018-05-29T20:47:13.155Z,96.50
2018-05-29T20:49:40.747Z,96.60
2018-05-29T20:52:07.468Z,96.60
2018-05-29T20:54:34.459Z,95.30
2018-05-29T20:57:00.874Z,95.60
2018-05-29T20:59:27.903Z,95.80
2018-05-29T21:01:54.219Z,95.80
2018-05-29T21:04:20.484Z,95.00
2018-05-29T21:06:47.532Z,96.00
2018-05-29T21:09:14.531Z,96.20
2018-05-29T21:11:40.831Z,96.20
2018-05-29T21:14:07.175Z,96.00
2018-05-29T21:16:33.826Z,95.80
2018-05-29T21:19:00.520Z,95.60
2018-05-29T21:21:27.904Z,94.60
2018-05-29T21:23:54.847Z,94.60
2018-05-29T21:26:22.747Z,94.20
2018-05-29T21:28:49.049Z,94.50
2018-05-29T21:31:16.656Z,94.70
2018-05-29T21:33:43.425Z,94.60
2018-05-29T21:36:09.737Z,95.10
2018-05-29T21:38:36.015Z,95.50
2018-05-29T21:41:02.571Z,95.40
2018-05-29T21:43:28.826Z,94.90
2018-05-29T21:45:55.098Z,95.50
2018-05-29T21:48:21.346Z,95.80
2018-05-29T21:50:48.356Z,96.00
2018-05-29T21:53:14.605Z,96.00
2018-05-29T21:55:40.992Z,96.10
2018-05-29T21:58:07.254Z,96.10
2018-05-29T22:00:33.555Z,96.40
2018-05-29T22:03:00.200Z,96.30
2018-05-29T22:05:26.503Z,96.40
2018-05-29T22:07:53.511Z,96.60
2018-05-29T22:10:19.971Z,96.50
2018-05-29T22:12:46.235Z,96.70
2018-05-29T22:15:12.490Z,96.80
2018-05-29T22:17:38.771Z,96.90
2018-05-29T22:20:05.767Z,97.00
2018-05-29T22:22:32.067Z,97.00
2018-05-29T22:24:58.696Z,96.90
2018-05-29T22:27:25.702Z,97.20
2018-05-29T22:29:51.952Z,97.20
2018-05-29T22:32:18.243Z,97.10
2018-05-29T22:34:44.495Z,97.00
2018-05-29T22:37:10.794Z,97.00
2018-05-29T22:39:37.094Z,96.90
2018-05-29T22:42:04.115Z,96.90
2018-05-29T22:44:30.387Z,96.90
2018-05-29T22:46:57.383Z,96.80
2018-05-29T22:49:23.667Z,96.80
2018-05-29T22:51:50.699Z,97.20
2018-05-29T22:54:16.983Z,97.20
2018-05-29T22:56:43.361Z,97.00
2018-05-29T22:59:09.611Z,96.90
2018-05-29T23:01:35.982Z,96.90
2018-05-29T23:04:02.247Z,97.00
2018-05-29T23:06:28.619Z,97.00
2018-05-29T23:08:55.002Z,97.10
2018-05-29T23:11:21.387Z,97.20
2018-05-29T23:13:48.391Z,97.10
2018-05-29T23:16:14.651Z,97.10
2018-05-29T23:18:40.911Z,97.40
2018-05-29T23:21:07.160Z,97.30
2018-05-29T23:23:33.427Z,97.30
2018-05-29T23:25:59.663Z,96.90
2018-05-29T23:28:25.927Z,97.00
2018-05-29T23:30:52.211Z,97.20
2018-05-29T23:33:18.483Z,97.00
2018-05-29T23:35:45.505Z,96.70
2018-05-29T23:38:11.767Z,96.70
2018-05-29T23:40:38.036Z,96.80
2018-05-29T23:43:04.284Z,96.60
2018-05-29T23:45:30.546Z,96.70
2018-05-29T23:47:57.544Z,96.80
2018-05-29T23:50:23.811Z,96.80
2018-05-29T23:52:50.143Z,96.80
2018-05-29T23:55:16.407Z,96.80
2018-05-29T23:57:42.666Z,96.80
